Terminal Aerodrome Forecast
Issued by NWS

Home | Current Version | Previous Version | Text Only | Print | Product List | Glossary On
Versions: 1 2 3 4 5 6 7 8 9 10 11 12 13 14 15 16 17 18 19
623
FTUS43 KAPX 241350 AAA
TAFAPN
TAF AMD
KAPN 241350Z 2414/2512 01011KT P6SM BKN040
     FM242200 01007KT P6SM FEW050
     FM250300 VRB03KT P6SM SKC=

USA.gov is the U.S. government's official web portal to all federal, state and local government web resources and services.